Time;durP1;ratioP1;P1;durP2;ratioP2;P2;SDS_P1;SDS_P2;PMS_P1;PMS_P2;Temp;Humidity;BMP_temperature;BMP_pressure;BME280_temperature;BME280_humidity;BME280_pressure;Samples;Min_cycle;Max_cycle;Signal;HPM_P1;HPM_P2
2022/08/08 00:01:22;;;;;;;3.30;1.75;;;;;;;;;;4215605;28;20036;-62
2022/08/08 00:03:28;;;;;;;3.03;1.52;;;;;;;;;;4215410;28;20089;-62
2022/08/08 00:05:47;;;;;;;1.65;1.40;;;;;;;;;;4215812;28;20364;-61
2022/08/08 00:08:14;;;;;;;3.33;1.60;;;;;;;;;;4215813;28;20024;-62
2022/08/08 00:10:18;;;;;;;2.10;1.90;;;;;;;;;;4206104;28;20028;-61
2022/08/08 00:12:23;;;;;;;3.97;1.67;;;;;;;;;;4216165;28;20024;-62
2022/08/08 00:14:24;;;;;;;2.47;1.70;;;;;;;;;;4215599;28;20043;-61
2022/08/08 00:16:40;;;;;;;2.45;1.55;;;;;;;;;;4215565;28;20051;-61
2022/08/08 00:19:01;;;;;;;2.38;1.45;;;;;;;;;;4216193;28;20336;-62
2022/08/08 00:21:07;;;;;;;3.55;1.70;;;;;;;;;;4201034;28;20036;-61
2022/08/08 00:23:17;;;;;;;2.97;1.30;;;;;;;;;;4215891;28;20043;-61
2022/08/08 00:25:23;;;;;;;3.90;1.40;;;;;;;;;;4215486;28;20383;-61
2022/08/08 00:27:25;;;;;;;2.92;1.63;;;;;;;;;;4215011;28;20097;-61
2022/08/08 00:29:28;;;;;;;3.15;1.50;;;;;;;;;;4214995;28;20032;-61
2022/08/08 00:31:31;;;;;;;1.95;1.35;;;;;;;;;;4215390;28;20040;-62
2022/08/08 00:33:39;;;;;;;3.97;1.70;;;;;;;;;;4215600;28;20028;-61
2022/08/08 00:35:49;;;;;;;4.18;1.70;;;;;;;;;;4215316;28;20097;-61
2022/08/08 00:38:08;;;;;;;2.47;1.75;;;;;;;;;;4215350;28;20032;-62
2022/08/08 00:40:12;;;;;;;2.45;1.40;;;;;;;;;;4214119;28;20020;-61
2022/08/08 00:42:29;;;;;;;2.00;1.10;;;;;;;;;;4215117;28;20036;-62
2022/08/08 00:44:45;;;;;;;2.67;1.55;;;;;;;;;;4215052;28;20028;-61
2022/08/08 00:46:52;;;;;;;1.80;1.48;;;;;;;;;;4215236;28;20031;-61
2022/08/08 00:49:11;;;;;;;2.28;1.60;;;;;;;;;;4215121;28;20086;-61
2022/08/08 00:51:31;;;;;;;1.92;1.30;;;;;;;;;;4214758;28;20032;-63
2022/08/08 00:53:31;;;;;;;3.17;1.42;;;;;;;;;;4215036;28;20035;-62
2022/08/08 00:55:44;;;;;;;2.25;1.25;;;;;;;;;;4214779;28;20135;-61
2022/08/08 00:58:14;;;;;;;1.83;1.17;;;;;;;;;;4214831;28;20032;-61
2022/08/08 01:00:20;;;;;;;4.20;1.83;;;;;;;;;;4209076;28;20036;-61
2022/08/08 01:02:40;;;;;;;3.63;1.35;;;;;;;;;;4214841;28;20478;-61
2022/08/08 01:04:44;;;;;;;3.83;1.83;;;;;;;;;;4214771;28;20422;-62
2022/08/08 01:06:54;;;;;;;1.83;1.40;;;;;;;;;;4215207;28;20079;-61
2022/08/08 01:08:58;;;;;;;2.92;1.50;;;;;;;;;;4215132;28;20024;-61
2022/08/08 01:11:17;;;;;;;2.35;1.15;;;;;;;;;;4213682;28;20028;-61
2022/08/08 01:13:42;;;;;;;2.35;1.40;;;;;;;;;;4214569;28;20032;-61
2022/08/08 01:15:43;;;;;;;1.75;1.30;;;;;;;;;;4215087;28;20467;-62
2022/08/08 01:18:02;;;;;;;1.98;1.13;;;;;;;;;;4215171;28;20020;-61
2022/08/08 01:20:22;;;;;;;2.90;1.48;;;;;;;;;;4214331;28;20074;-62
2022/08/08 01:22:26;;;;;;;1.90;1.40;;;;;;;;;;4214827;28;20543;-61
2022/08/08 01:24:39;;;;;;;1.87;1.33;;;;;;;;;;4214633;28;20032;-61
2022/08/08 01:26:58;;;;;;;2.67;1.70;;;;;;;;;;4214176;28;20044;-61
2022/08/08 01:29:18;;;;;;;3.83;1.50;;;;;;;;;;4214440;28;20040;-61
2022/08/08 01:31:37;;;;;;;3.05;1.33;;;;;;;;;;4213388;28;20028;-62
2022/08/08 01:33:57;;;;;;;3.22;1.45;;;;;;;;;;4214319;28;20089;-61
2022/08/08 01:36:17;;;;;;;2.53;1.67;;;;;;;;;;4214271;28;20426;-61
2022/08/08 01:38:50;;;;;;;1.45;1.30;;;;;;;;;;4214388;28;20085;-61
2022/08/08 01:41:10;;;;;;;1.58;1.27;;;;;;;;;;4169074;28;20032;-61
2022/08/08 01:43:19;;;;;;;1.67;1.58;;;;;;;;;;4214222;28;20082;-62
2022/08/08 01:45:29;;;;;;;3.47;1.95;;;;;;;;;;4214194;28;20471;-62
2022/08/08 01:47:39;;;;;;;3.10;1.30;;;;;;;;;;4214278;28;20082;-61
2022/08/08 01:49:42;;;;;;;2.13;1.40;;;;;;;;;;4214090;28;20093;-62
2022/08/08 01:51:47;;;;;;;2.42;1.50;;;;;;;;;;4214113;28;20028;-61
2022/08/08 01:53:55;;;;;;;2.50;1.52;;;;;;;;;;4214140;28;20058;-62
2022/08/08 01:56:15;;;;;;;2.53;1.40;;;;;;;;;;4214149;28;20040;-61
2022/08/08 01:58:34;;;;;;;2.45;1.25;;;;;;;;;;4214124;28;20031;-61
2022/08/08 02:00:39;;;;;;;3.80;1.58;;;;;;;;;;4213907;28;20082;-61
2022/08/08 02:02:49;;;;;;;2.55;1.50;;;;;;;;;;4214072;28;20073;-61
2022/08/08 02:05:08;;;;;;;3.97;1.77;;;;;;;;;;4214161;28;20437;-62
2022/08/08 02:09:48;;;;;;;2.40;1.20;;;;;;;;;;4212730;28;20463;-62
2022/08/08 02:11:50;;;;;;;5.20;2.35;;;;;;;;;;4214441;28;20024;-60
2022/08/08 02:14:00;;;;;;;1.63;1.35;;;;;;;;;;4213870;28;20438;-60
2022/08/08 02:16:16;;;;;;;3.28;1.40;;;;;;;;;;4213767;28;20039;-61
2022/08/08 02:18:20;;;;;;;2.60;1.70;;;;;;;;;;4214698;28;20027;-61
2022/08/08 02:20:30;;;;;;;2.95;1.48;;;;;;;;;;4214237;28;20046;-61
2022/08/08 02:22:49;;;;;;;2.78;1.55;;;;;;;;;;4214314;28;20040;-61
2022/08/08 02:24:54;;;;;;;2.63;1.52;;;;;;;;;;4214472;28;20043;-61
2022/08/08 02:27:11;;;;;;;2.08;1.42;;;;;;;;;;4217170;28;20094;-61
2022/08/08 02:29:23;;;;;;;1.90;1.17;;;;;;;;;;4217419;28;20467;-61
2022/08/08 02:31:54;;;;;;;3.08;1.20;;;;;;;;;;4216582;28;20082;-60
2022/08/08 02:33:58;;;;;;;3.80;1.42;;;;;;;;;;4215799;28;20044;-61
2022/08/08 02:36:10;;;;;;;3.97;1.60;;;;;;;;;;4217022;28;20108;-61
2022/08/08 02:38:14;;;;;;;3.55;1.70;;;;;;;;;;4217273;28;20269;-60
2022/08/08 02:40:35;;;;;;;2.47;1.27;;;;;;;;;;4217042;28;20032;-60
2022/08/08 02:42:46;;;;;;;2.78;1.27;;;;;;;;;;4217120;28;20081;-60
2022/08/08 02:45:07;;;;;;;2.08;1.50;;;;;;;;;;4217110;28;20032;-61
2022/08/08 02:47:25;;;;;;;1.60;1.30;;;;;;;;;;4217147;28;20024;-60
2022/08/08 02:49:37;;;;;;;2.85;1.50;;;;;;;;;;4216490;28;20101;-60
2022/08/08 02:51:57;;;;;;;2.58;1.77;;;;;;;;;;4216926;28;20085;-60
2022/08/08 02:54:16;;;;;;;2.28;1.25;;;;;;;;;;4216932;28;20036;-61
2022/08/08 02:56:35;;;;;;;2.80;1.50;;;;;;;;;;4217250;28;20089;-60
2022/08/08 02:58:48;;;;;;;3.20;1.40;;;;;;;;;;4216912;28;20032;-60
2022/08/08 03:01:01;;;;;;;4.60;1.40;;;;;;;;;;4216560;28;20031;-61
2022/08/08 03:03:20;;;;;;;1.90;1.25;;;;;;;;;;4216612;28;20028;-61
2022/08/08 03:05:32;;;;;;;2.35;1.38;;;;;;;;;;4216538;28;20028;-60
2022/08/08 03:07:56;;;;;;;4.28;1.60;;;;;;;;;;4216694;28;20032;-61
2022/08/08 03:10:06;;;;;;;2.38;1.42;;;;;;;;;;4216231;28;20104;-61
2022/08/08 03:12:19;;;;;;;2.78;1.50;;;;;;;;;;4216944;28;20459;-61
2022/08/08 03:14:39;;;;;;;2.22;1.50;;;;;;;;;;4216865;28;20466;-61
2022/08/08 03:16:48;;;;;;;2.05;1.50;;;;;;;;;;4216650;28;20044;-61
2022/08/08 03:18:52;;;;;;;2.83;1.50;;;;;;;;;;4216595;28;20036;-62
2022/08/08 03:20:55;;;;;;;2.58;1.48;;;;;;;;;;4216367;28;20081;-61
2022/08/08 03:22:56;;;;;;;1.63;1.33;;;;;;;;;;4216507;28;20036;-61
2022/08/08 03:24:59;;;;;;;3.83;1.52;;;;;;;;;;4216374;28;20467;-61
2022/08/08 03:27:11;;;;;;;2.42;1.67;;;;;;;;;;4216202;28;20044;-62
2022/08/08 03:29:16;;;;;;;3.65;1.60;;;;;;;;;;4216395;28;20089;-62
2022/08/08 03:33:40;;;;;;;2.28;1.50;;;;;;;;;;4216945;28;20036;-62
2022/08/08 03:35:41;;;;;;;2.13;1.45;;;;;;;;;;4216139;28;20048;-62
2022/08/08 03:37:42;;;;;;;2.38;1.58;;;;;;;;;;4214974;28;20089;-62
2022/08/08 03:39:43;;;;;;;2.55;1.50;;;;;;;;;;4215745;28;20111;-61
2022/08/08 03:41:44;;;;;;;3.13;1.58;;;;;;;;;;4216178;28;20036;-62
2022/08/08 03:43:57;;;;;;;3.03;1.60;;;;;;;;;;4216104;28;20372;-61
2022/08/08 03:46:03;;;;;;;2.78;1.52;;;;;;;;;;4216123;28;20093;-62
2022/08/08 03:48:08;;;;;;;3.08;1.75;;;;;;;;;;4215870;28;20032;-62
2022/08/08 03:50:19;;;;;;;2.22;1.42;;;;;;;;;;4215804;28;20085;-61
2022/08/08 03:52:22;;;;;;;3.13;1.33;;;;;;;;;;4216046;28;20040;-61
2022/08/08 03:54:24;;;;;;;2.65;1.42;;;;;;;;;;4216481;28;20044;-61
2022/08/08 03:56:25;;;;;;;2.72;1.48;;;;;;;;;;4215901;28;20032;-62
2022/08/08 03:58:26;;;;;;;2.13;1.55;;;;;;;;;;4216052;28;20081;-62
2022/08/08 04:00:28;;;;;;;2.35;1.38;;;;;;;;;;4215926;28;20507;-62
2022/08/08 04:02:28;;;;;;;2.40;1.52;;;;;;;;;;4215858;28;20094;-62
2022/08/08 04:04:35;;;;;;;2.28;1.55;;;;;;;;;;4216191;28;20039;-62
2022/08/08 04:06:42;;;;;;;2.67;1.50;;;;;;;;;;4209129;28;20459;-61
2022/08/08 04:08:43;;;;;;;2.78;2.08;;;;;;;;;;4215791;28;20031;-62
2022/08/08 04:10:45;;;;;;;2.58;1.50;;;;;;;;;;4215958;28;20313;-61
2022/08/08 04:12:49;;;;;;;1.83;1.55;;;;;;;;;;4215784;28;20066;-61
2022/08/08 04:14:50;;;;;;;2.90;1.40;;;;;;;;;;4215778;28;20032;-61
2022/08/08 04:16:50;;;;;;;2.28;1.50;;;;;;;;;;4215935;28;20040;-62
2022/08/08 04:18:51;;;;;;;3.35;1.50;;;;;;;;;;4215596;28;20024;-61
2022/08/08 04:20:52;;;;;;;3.53;1.77;;;;;;;;;;4215581;28;20071;-62
2022/08/08 04:22:53;;;;;;;3.08;1.80;;;;;;;;;;4215478;28;20032;-62
2022/08/08 04:24:54;;;;;;;1.85;1.50;;;;;;;;;;4215439;28;20046;-61
2022/08/08 04:26:55;;;;;;;2.67;1.40;;;;;;;;;;4215387;28;20043;-61
2022/08/08 04:28:56;;;;;;;2.40;1.48;;;;;;;;;;4215552;28;20541;-62
2022/08/08 04:30:57;;;;;;;2.55;1.40;;;;;;;;;;4215173;28;20154;-61
2022/08/08 04:33:00;;;;;;;2.40;1.55;;;;;;;;;;4215903;28;20028;-61
2022/08/08 04:35:01;;;;;;;2.70;1.58;;;;;;;;;;4215224;28;20040;-61
2022/08/08 04:37:02;;;;;;;2.90;1.70;;;;;;;;;;4214506;28;20097;-62
2022/08/08 04:39:03;;;;;;;5.60;1.83;;;;;;;;;;4213537;28;20425;-62
2022/08/08 04:41:04;;;;;;;4.78;1.42;;;;;;;;;;4214105;28;20065;-61
2022/08/08 04:43:05;;;;;;;4.72;1.77;;;;;;;;;;4215419;28;20115;-62
2022/08/08 04:45:26;;;;;;;3.25;1.73;;;;;;;;;;4215289;28;20032;-61
2022/08/08 04:47:27;;;;;;;3.35;1.67;;;;;;;;;;4213748;28;20070;-61
2022/08/08 04:49:28;;;;;;;3.40;1.70;;;;;;;;;;4214613;28;20418;-62
2022/08/08 04:51:34;;;;;;;3.78;1.50;;;;;;;;;;4215213;28;20030;-61
2022/08/08 04:53:35;;;;;;;2.85;1.27;;;;;;;;;;4215092;28;20093;-62
2022/08/08 04:55:39;;;;;;;3.38;1.75;;;;;;;;;;4213680;28;20040;-61
2022/08/08 04:57:40;;;;;;;1.85;1.50;;;;;;;;;;4215489;28;20016;-62
2022/08/08 04:59:44;;;;;;;2.40;1.67;;;;;;;;;;4215116;28;20384;-61
2022/08/08 05:01:45;;;;;;;2.25;1.52;;;;;;;;;;4214905;28;20422;-62
2022/08/08 05:03:46;;;;;;;3.47;1.85;;;;;;;;;;4215286;28;20032;-61
2022/08/08 05:05:47;;;;;;;2.38;1.40;;;;;;;;;;4215259;28;20035;-62
2022/08/08 05:07:48;;;;;;;3.25;1.58;;;;;;;;;;4214728;28;20032;-62
2022/08/08 05:09:49;;;;;;;2.10;1.20;;;;;;;;;;4214514;28;20028;-61
2022/08/08 05:11:50;;;;;;;3.50;1.98;;;;;;;;;;4214746;28;20040;-62
2022/08/08 05:13:50;;;;;;;2.85;1.67;;;;;;;;;;4213836;28;20383;-62
2022/08/08 05:15:54;;;;;;;4.07;1.90;;;;;;;;;;4214536;28;20044;-62
2022/08/08 05:17:55;;;;;;;2.58;1.58;;;;;;;;;;4215049;28;20433;-61
2022/08/08 05:19:56;;;;;;;2.10;1.65;;;;;;;;;;4214683;28;20028;-61
2022/08/08 05:21:57;;;;;;;3.58;1.40;;;;;;;;;;4214935;28;20039;-61
2022/08/08 05:23:58;;;;;;;2.15;1.30;;;;;;;;;;4214858;28;20126;-61
2022/08/08 05:25:59;;;;;;;2.63;1.42;;;;;;;;;;4214826;28;20068;-61
2022/08/08 05:28:00;;;;;;;4.57;1.75;;;;;;;;;;4214224;28;20549;-62
2022/08/08 05:30:04;;;;;;;1.60;1.30;;;;;;;;;;4214501;28;20087;-62
2022/08/08 05:32:06;;;;;;;2.95;1.52;;;;;;;;;;4214384;28;20089;-62
2022/08/08 05:34:27;;;;;;;2.85;1.48;;;;;;;;;;4214515;28;20036;-62
2022/08/08 05:36:29;;;;;;;2.78;1.90;;;;;;;;;;4214022;28;20552;-62
2022/08/08 05:38:32;;;;;;;3.45;1.60;;;;;;;;;;4214401;28;20463;-62
2022/08/08 05:40:33;;;;;;;2.38;1.30;;;;;;;;;;4214724;28;20024;-61
2022/08/08 05:42:43;;;;;;;2.53;1.67;;;;;;;;;;4214272;28;20429;-61
2022/08/08 05:44:45;;;;;;;2.58;1.45;;;;;;;;;;4214398;28;20032;-61
2022/08/08 05:46:48;;;;;;;4.47;1.38;;;;;;;;;;4214287;28;20039;-62
2022/08/08 05:48:49;;;;;;;4.03;1.90;;;;;;;;;;4214433;28;20152;-61
2022/08/08 05:50:50;;;;;;;3.08;1.60;;;;;;;;;;4214445;28;20479;-61
2022/08/08 05:52:51;;;;;;;5.47;1.88;;;;;;;;;;4214114;28;20463;-62
2022/08/08 05:54:52;;;;;;;2.47;1.80;;;;;;;;;;4207486;28;20035;-62
2022/08/08 05:56:54;;;;;;;4.00;1.50;;;;;;;;;;4214537;28;20123;-62
2022/08/08 05:59:04;;;;;;;2.00;1.48;;;;;;;;;;4214647;28;20036;-62
2022/08/08 06:01:06;;;;;;;3.45;1.67;;;;;;;;;;4213294;28;20425;-62
2022/08/08 06:03:10;;;;;;;2.22;1.75;;;;;;;;;;4211238;28;20028;-61
2022/08/08 06:05:14;;;;;;;4.20;1.80;;;;;;;;;;4214221;28;20031;-62
2022/08/08 06:07:17;;;;;;;4.75;1.73;;;;;;;;;;4214018;28;20035;-62
2022/08/08 06:09:22;;;;;;;2.03;1.50;;;;;;;;;;4214120;28;20036;-61
2022/08/08 06:11:24;;;;;;;2.00;1.70;;;;;;;;;;4214090;28;20040;-62
2022/08/08 06:13:27;;;;;;;5.28;2.30;;;;;;;;;;4214365;28;20536;-62
2022/08/08 06:15:28;;;;;;;2.53;1.75;;;;;;;;;;4213921;28;20039;-62
2022/08/08 06:17:31;;;;;;;2.15;1.52;;;;;;;;;;4214055;28;20028;-62
2022/08/08 06:19:31;;;;;;;1.77;1.20;;;;;;;;;;4214229;28;20344;-61
2022/08/08 06:21:36;;;;;;;3.88;2.10;;;;;;;;;;4213917;28;20035;-61
2022/08/08 06:23:39;;;;;;;2.97;1.80;;;;;;;;;;4213530;28;20040;-61
2022/08/08 06:25:41;;;;;;;4.72;1.88;;;;;;;;;;4213973;28;20410;-61
2022/08/08 06:27:50;;;;;;;1.50;1.40;;;;;;;;;;4213843;28;20117;-61
2022/08/08 06:30:04;;;;;;;3.10;1.88;;;;;;;;;;4213643;28;20036;-61
2022/08/08 06:32:08;;;;;;;4.38;1.83;;;;;;;;;;4213979;28;20031;-62
2022/08/08 06:34:14;;;;;;;4.40;1.80;;;;;;;;;;4214022;28;20098;-61
2022/08/08 06:36:19;;;;;;;2.70;1.80;;;;;;;;;;4213933;28;20380;-62
2022/08/08 06:38:22;;;;;;;4.35;1.95;;;;;;;;;;4212772;28;20067;-61
2022/08/08 06:40:24;;;;;;;5.47;2.10;;;;;;;;;;4213723;28;20032;-61
2022/08/08 06:42:31;;;;;;;6.18;1.98;;;;;;;;;;4213898;28;20028;-62
2022/08/08 06:44:34;;;;;;;2.35;1.75;;;;;;;;;;4213916;28;20040;-62
2022/08/08 06:46:34;;;;;;;3.88;2.00;;;;;;;;;;4213847;28;20028;-62
2022/08/08 06:48:35;;;;;;;2.35;1.60;;;;;;;;;;4214194;28;20410;-62
2022/08/08 06:50:38;;;;;;;5.43;1.63;;;;;;;;;;4213653;28;20036;-62
2022/08/08 06:52:41;;;;;;;4.43;1.85;;;;;;;;;;4213617;28;20109;-62
2022/08/08 06:54:45;;;;;;;3.42;1.60;;;;;;;;;;4213863;28;20024;-62
2022/08/08 06:56:49;;;;;;;2.28;1.60;;;;;;;;;;4213781;28;20418;-62
2022/08/08 06:58:50;;;;;;;4.03;2.40;;;;;;;;;;4213707;28;20086;-61
2022/08/08 07:00:51;;;;;;;3.40;1.83;;;;;;;;;;4213759;28;20064;-62
2022/08/08 07:02:53;;;;;;;1.95;1.60;;;;;;;;;;4213714;28;20032;-61
2022/08/08 07:05:06;;;;;;;2.67;1.45;;;;;;;;;;4213821;28;20032;-62
2022/08/08 07:07:08;;;;;;;2.83;1.77;;;;;;;;;;4213510;28;20557;-61
2022/08/08 07:09:14;;;;;;;3.22;1.42;;;;;;;;;;4213713;28;20036;-62
2022/08/08 07:11:16;;;;;;;4.47;1.98;;;;;;;;;;4214664;28;20406;-62
2022/08/08 07:13:18;;;;;;;2.60;1.30;;;;;;;;;;4216068;28;20028;-61
2022/08/08 07:15:31;;;;;;;4.57;1.75;;;;;;;;;;4217038;28;20066;-61
2022/08/08 07:17:52;;;;;;;3.55;1.75;;;;;;;;;;4216664;28;20472;-61
2022/08/08 07:20:02;;;;;;;4.35;1.60;;;;;;;;;;4202127;28;20032;-61
2022/08/08 07:22:11;;;;;;;3.80;1.92;;;;;;;;;;4216579;28;20044;-61
2022/08/08 07:24:17;;;;;;;5.00;2.45;;;;;;;;;;4217001;28;20417;-61
2022/08/08 07:26:20;;;;;;;3.40;1.70;;;;;;;;;;4216463;28;20471;-61
2022/08/08 07:28:24;;;;;;;3.60;2.10;;;;;;;;;;4216288;28;20116;-61
2022/08/08 07:30:25;;;;;;;3.13;2.10;;;;;;;;;;4213695;28;20036;-61
2022/08/08 07:32:26;;;;;;;3.78;2.10;;;;;;;;;;4216345;28;20034;-61
2022/08/08 07:34:30;;;;;;;3.15;1.73;;;;;;;;;;4216227;28;20059;-61
2022/08/08 07:36:32;;;;;;;5.28;2.08;;;;;;;;;;4216313;28;20101;-61
2022/08/08 07:38:34;;;;;;;2.80;1.70;;;;;;;;;;4216852;28;20028;-61
2022/08/08 07:40:35;;;;;;;5.43;2.08;;;;;;;;;;4215903;28;20100;-61
2022/08/08 07:42:39;;;;;;;3.00;1.73;;;;;;;;;;4216012;28;20481;-61
2022/08/08 07:44:40;;;;;;;6.15;2.22;;;;;;;;;;4216084;28;20032;-61
2022/08/08 07:46:41;;;;;;;2.80;1.80;;;;;;;;;;4215991;28;20028;-61
2022/08/08 07:48:42;;;;;;;2.35;1.90;;;;;;;;;;4216668;28;20063;-61
2022/08/08 07:50:46;;;;;;;3.83;2.13;;;;;;;;;;4215882;28;20489;-61
2022/08/08 07:52:49;;;;;;;3.83;1.90;;;;;;;;;;4215763;28;20040;-61
2022/08/08 07:54:56;;;;;;;3.17;1.98;;;;;;;;;;4215989;28;20097;-61
2022/08/08 07:57:02;;;;;;;3.22;1.75;;;;;;;;;;4216003;28;20039;-61
2022/08/08 07:59:09;;;;;;;4.05;1.90;;;;;;;;;;4215879;28;20090;-62
2022/08/08 08:01:14;;;;;;;3.97;2.22;;;;;;;;;;4215450;28;20032;-61
2022/08/08 08:03:29;;;;;;;3.60;1.85;;;;;;;;;;4215747;28;20192;-61
2022/08/08 08:05:31;;;;;;;2.53;1.58;;;;;;;;;;4215988;28;20028;-61
2022/08/08 08:07:36;;;;;;;4.10;2.08;;;;;;;;;;4215836;28;20036;-61
2022/08/08 08:09:38;;;;;;;3.50;2.05;;;;;;;;;;4208859;28;20044;-61
2022/08/08 08:11:44;;;;;;;3.92;2.00;;;;;;;;;;4215665;28;20489;-61
2022/08/08 08:13:45;;;;;;;3.95;2.10;;;;;;;;;;4215804;28;20418;-61
2022/08/08 08:16:05;;;;;;;6.70;2.13;;;;;;;;;;4215538;28;20119;-61
2022/08/08 08:18:06;;;;;;;2.97;1.63;;;;;;;;;;4215255;28;20024;-61
2022/08/08 08:20:09;;;;;;;5.68;2.10;;;;;;;;;;4215278;28;20085;-61
2022/08/08 08:22:10;;;;;;;3.65;2.03;;;;;;;;;;4215221;28;20032;-61
2022/08/08 08:24:11;;;;;;;2.70;2.00;;;;;;;;;;4215519;28;20024;-61
2022/08/08 08:26:12;;;;;;;3.83;2.25;;;;;;;;;;4215647;28;20091;-61
2022/08/08 08:28:13;;;;;;;4.70;2.00;;;;;;;;;;4215532;28;20557;-61
2022/08/08 08:30:14;;;;;;;5.38;2.47;;;;;;;;;;4215139;28;20036;-61
2022/08/08 08:32:15;;;;;;;2.50;2.00;;;;;;;;;;4215716;28;20094;-61
2022/08/08 08:34:16;;;;;;;4.75;1.88;;;;;;;;;;4215138;28;20035;-61
2022/08/08 08:36:17;;;;;;;4.32;2.17;;;;;;;;;;4215585;28;20063;-61
2022/08/08 08:38:18;;;;;;;6.85;2.13;;;;;;;;;;4215477;28;20062;-61
2022/08/08 08:40:20;;;;;;;3.85;2.17;;;;;;;;;;4215054;28;20028;-61
2022/08/08 08:42:22;;;;;;;2.92;2.05;;;;;;;;;;4212819;28;20032;-62
2022/08/08 08:44:26;;;;;;;4.10;2.10;;;;;;;;;;4215398;28;20352;-61
2022/08/08 08:46:28;;;;;;;2.88;1.85;;;;;;;;;;4215178;28;20032;-61
2022/08/08 08:48:30;;;;;;;4.03;1.83;;;;;;;;;;4215039;28;20464;-61
2022/08/08 08:50:32;;;;;;;4.70;2.10;;;;;;;;;;4215329;28;20481;-61
2022/08/08 08:52:36;;;;;;;3.72;1.85;;;;;;;;;;4215781;28;20028;-61
2022/08/08 08:54:37;;;;;;;4.35;2.20;;;;;;;;;;4215481;28;20032;-61
2022/08/08 08:56:39;;;;;;;2.80;1.80;;;;;;;;;;4214882;28;20039;-61
2022/08/08 08:58:43;;;;;;;4.75;1.92;;;;;;;;;;4215542;28;20016;-61
2022/08/08 09:00:44;;;;;;;2.03;1.80;;;;;;;;;;4213993;28;20382;-62
2022/08/08 09:02:46;;;;;;;1.90;1.70;;;;;;;;;;4215331;28;20107;-61
2022/08/08 09:04:50;;;;;;;5.00;2.35;;;;;;;;;;4214884;28;20028;-61
2022/08/08 09:06:56;;;;;;;3.15;1.80;;;;;;;;;;4215338;28;20081;-61
2022/08/08 09:09:17;;;;;;;2.70;1.70;;;;;;;;;;4214906;28;20031;-61
2022/08/08 09:11:18;;;;;;;2.70;1.80;;;;;;;;;;4214243;28;20117;-61
2022/08/08 09:13:22;;;;;;;3.90;2.15;;;;;;;;;;4214853;28;20089;-61
2022/08/08 09:15:23;;;;;;;5.22;2.70;;;;;;;;;;4214832;28;20097;-61
2022/08/08 09:17:24;;;;;;;4.95;2.25;;;;;;;;;;4214621;28;20105;-61
2022/08/08 09:19:25;;;;;;;3.92;2.00;;;;;;;;;;4214786;28;20028;-61
2022/08/08 09:21:26;;;;;;;2.72;1.85;;;;;;;;;;4214642;28;20036;-62
2022/08/08 09:23:28;;;;;;;4.07;1.90;;;;;;;;;;4214875;28;20030;-60
2022/08/08 09:25:30;;;;;;;3.28;2.25;;;;;;;;;;4214574;28;20085;-62
2022/08/08 09:27:31;;;;;;;3.90;2.20;;;;;;;;;;4214456;28;20482;-61
2022/08/08 09:29:37;;;;;;;4.97;1.90;;;;;;;;;;4214447;28;20024;-61
2022/08/08 09:31:48;;;;;;;4.57;2.30;;;;;;;;;;4214440;28;20040;-61
2022/08/08 09:33:51;;;;;;;4.25;1.95;;;;;;;;;;4214623;28;20445;-61
2022/08/08 09:35:52;;;;;;;4.33;2.47;;;;;;;;;;4213702;28;20085;-61
2022/08/08 09:37:54;;;;;;;3.35;2.10;;;;;;;;;;4214778;28;20064;-61
2022/08/08 09:40:05;;;;;;;4.40;2.03;;;;;;;;;;4213090;28;20040;-61
2022/08/08 09:42:09;;;;;;;4.38;2.10;;;;;;;;;;4214265;28;20467;-61
2022/08/08 09:44:26;;;;;;;3.35;2.15;;;;;;;;;;4214517;28;20368;-61
2022/08/08 09:46:28;;;;;;;3.45;2.00;;;;;;;;;;4214773;28;20024;-61
2022/08/08 09:48:33;;;;;;;3.45;1.80;;;;;;;;;;4214328;28;20023;-61
2022/08/08 09:50:35;;;;;;;3.42;2.28;;;;;;;;;;4214088;28;20085;-61
2022/08/08 09:52:39;;;;;;;3.83;2.20;;;;;;;;;;4214245;28;20032;-61
2022/08/08 09:54:42;;;;;;;3.55;2.08;;;;;;;;;;4214140;28;20070;-61
2022/08/08 09:56:45;;;;;;;3.70;2.50;;;;;;;;;;4214091;28;20044;-61
2022/08/08 09:59:07;;;;;;;4.93;2.15;;;;;;;;;;4214320;28;20062;-61
2022/08/08 10:01:08;;;;;;;5.65;2.55;;;;;;;;;;4214011;28;20540;-61
2022/08/08 10:03:12;;;;;;;4.82;2.28;;;;;;;;;;4214217;28;20039;-61
2022/08/08 10:05:17;;;;;;;5.20;2.38;;;;;;;;;;4213807;28;20044;-61
2022/08/08 10:07:18;;;;;;;4.20;2.13;;;;;;;;;;4214124;28;20061;-61
2022/08/08 10:09:29;;;;;;;4.13;2.00;;;;;;;;;;4213839;28;20040;-61
2022/08/08 10:11:31;;;;;;;3.53;1.90;;;;;;;;;;4214104;28;20027;-61
2022/08/08 10:13:32;;;;;;;4.97;2.15;;;;;;;;;;4213951;28;20082;-61
2022/08/08 10:15:36;;;;;;;4.75;2.40;;;;;;;;;;4214410;28;20040;-61
2022/08/08 10:17:47;;;;;;;4.15;1.98;;;;;;;;;;4214035;28;20106;-61
2022/08/08 10:19:52;;;;;;;2.15;1.75;;;;;;;;;;4213752;28;20097;-61
2022/08/08 10:21:53;;;;;;;3.53;2.08;;;;;;;;;;4213883;28;20036;-61
2022/08/08 10:23:58;;;;;;;3.30;2.10;;;;;;;;;;4214022;28;20040;-61
2022/08/08 10:26:00;;;;;;;4.45;2.60;;;;;;;;;;4213920;28;20036;-61
2022/08/08 10:28:01;;;;;;;3.10;2.20;;;;;;;;;;4213834;28;20606;-61
2022/08/08 10:30:04;;;;;;;3.08;2.10;;;;;;;;;;4213769;28;20059;-61
2022/08/08 10:34:28;;;;;;;5.82;2.70;;;;;;;;;;4215407;28;20372;-61
2022/08/08 10:36:32;;;;;;;4.18;2.60;;;;;;;;;;4213841;28;20044;-61
2022/08/08 10:38:36;;;;;;;3.95;2.40;;;;;;;;;;4213444;28;20032;-61
2022/08/08 10:40:37;;;;;;;3.85;2.50;;;;;;;;;;4213712;28;20517;-61
2022/08/08 10:42:39;;;;;;;4.00;2.70;;;;;;;;;;4213769;28;20032;-61
2022/08/08 10:44:41;;;;;;;5.10;1.83;;;;;;;;;;4213294;28;20032;-61
2022/08/08 10:46:42;;;;;;;3.17;2.17;;;;;;;;;;4209761;28;20129;-61
2022/08/08 10:48:44;;;;;;;4.07;2.63;;;;;;;;;;4217430;28;20035;-61
2022/08/08 10:50:45;;;;;;;4.80;2.30;;;;;;;;;;4216775;28;20426;-61
2022/08/08 10:52:46;;;;;;;2.60;2.05;;;;;;;;;;4217029;28;20032;-61
2022/08/08 10:54:53;;;;;;;6.85;2.55;;;;;;;;;;4217131;28;20028;-61
2022/08/08 10:56:55;;;;;;;4.35;2.30;;;;;;;;;;4216960;28;20453;-61
2022/08/08 10:58:59;;;;;;;6.40;2.30;;;;;;;;;;4216792;28;20077;-61
2022/08/08 11:01:06;;;;;;;4.85;3.00;;;;;;;;;;4216303;28;20032;-61
2022/08/08 11:03:13;;;;;;;3.97;2.20;;;;;;;;;;4216869;28;20077;-61
2022/08/08 11:05:16;;;;;;;3.38;2.22;;;;;;;;;;4216438;28;20093;-61
2022/08/08 11:07:34;;;;;;;3.87;2.47;;;;;;;;;;4217132;28;20066;-61
2022/08/08 11:09:44;;;;;;;3.33;1.95;;;;;;;;;;4214927;28;20273;-61
2022/08/08 11:11:46;;;;;;;3.85;2.50;;;;;;;;;;4216733;28;20029;-61
2022/08/08 11:13:46;;;;;;;4.03;2.35;;;;;;;;;;4216988;28;20032;-61
2022/08/08 11:15:48;;;;;;;5.35;2.80;;;;;;;;;;4217164;28;20373;-61
2022/08/08 11:17:50;;;;;;;3.10;2.30;;;;;;;;;;4216569;28;20040;-61
2022/08/08 11:19:51;;;;;;;3.60;2.30;;;;;;;;;;4216280;28;20031;-61
2022/08/08 11:21:53;;;;;;;4.85;2.75;;;;;;;;;;4216423;28;20467;-61
2022/08/08 11:23:57;;;;;;;2.95;2.05;;;;;;;;;;4216582;28;20028;-61
2022/08/08 11:26:00;;;;;;;5.78;2.65;;;;;;;;;;4216479;28;20040;-61
2022/08/08 11:28:04;;;;;;;3.67;2.53;;;;;;;;;;4216849;28;20044;-62
2022/08/08 11:30:07;;;;;;;4.80;2.58;;;;;;;;;;4216126;28;20039;-61
2022/08/08 11:32:11;;;;;;;3.25;2.50;;;;;;;;;;4216020;28;20085;-62
2022/08/08 11:34:13;;;;;;;4.00;2.33;;;;;;;;;;4216736;28;20016;-62
2022/08/08 11:36:14;;;;;;;3.05;2.30;;;;;;;;;;4214463;28;20032;-62
2022/08/08 11:38:18;;;;;;;4.35;2.40;;;;;;;;;;4216261;28;20036;-61
2022/08/08 11:40:19;;;;;;;3.67;2.05;;;;;;;;;;4216542;28;20027;-61
2022/08/08 11:42:20;;;;;;;3.80;2.90;;;;;;;;;;4216219;28;20089;-61
2022/08/08 11:44:21;;;;;;;5.15;2.30;;;;;;;;;;4216307;28;20429;-61
2022/08/08 11:46:23;;;;;;;3.72;2.40;;;;;;;;;;4216766;28;20430;-61
2022/08/08 11:48:24;;;;;;;3.97;2.25;;;;;;;;;;4216143;28;20027;-61
2022/08/08 11:50:25;;;;;;;5.25;2.50;;;;;;;;;;4215557;28;20472;-61
2022/08/08 11:52:27;;;;;;;4.00;2.85;;;;;;;;;;4215848;28;20089;-61
2022/08/08 11:54:29;;;;;;;5.82;2.85;;;;;;;;;;4215998;28;20093;-61
2022/08/08 11:56:33;;;;;;;5.28;2.55;;;;;;;;;;4215731;28;20442;-61
2022/08/08 11:58:34;;;;;;;;;;;;;;;;;;4215534;28;20031;-61
2022/08/08 12:00:48;;;;;;;3.95;2.65;;;;;;;;;;4215975;28;19904;-61
2022/08/08 12:02:49;;;;;;;5.75;2.65;;;;;;;;;;4215976;28;20032;-61
2022/08/08 12:05:06;;;;;;;4.28;2.40;;;;;;;;;;4216058;28;20426;-62
2022/08/08 12:07:07;;;;;;;3.50;2.22;;;;;;;;;;4215916;28;20157;-61
2022/08/08 12:09:11;;;;;;;3.88;2.28;;;;;;;;;;4215851;28;20550;-61
2022/08/08 12:11:14;;;;;;;2.30;2.10;;;;;;;;;;4215927;28;20028;-61
2022/08/08 12:13:20;;;;;;;3.63;2.08;;;;;;;;;;4215854;28;20265;-61
2022/08/08 12:15:29;;;;;;;3.38;2.22;;;;;;;;;;4215858;28;20165;-62
2022/08/08 12:17:37;;;;;;;3.33;2.65;;;;;;;;;;4215690;28;20044;-61
2022/08/08 12:19:41;;;;;;;4.00;2.63;;;;;;;;;;4215415;28;20032;-61
2022/08/08 12:21:42;;;;;;;5.07;3.00;;;;;;;;;;4215522;28;20032;-62
2022/08/08 12:23:45;;;;;;;2.97;2.67;;;;;;;;;;4215862;28;20098;-61
2022/08/08 12:25:46;;;;;;;3.33;2.30;;;;;;;;;;4215451;28;20032;-61
2022/08/08 12:27:47;;;;;;;2.97;2.47;;;;;;;;;;4215378;28;20040;-61
2022/08/08 12:29:55;;;;;;;4.50;2.70;;;;;;;;;;4214956;28;20044;-61
2022/08/08 12:32:14;;;;;;;4.45;2.30;;;;;;;;;;4215434;28;20040;-61
2022/08/08 12:34:16;;;;;;;4.10;2.40;;;;;;;;;;4215402;28;20032;-61
2022/08/08 12:36:17;;;;;;;4.20;2.50;;;;;;;;;;4215416;28;20413;-61
2022/08/08 12:38:18;;;;;;;4.45;2.35;;;;;;;;;;4215043;28;20044;-61
2022/08/08 12:40:21;;;;;;;5.85;2.90;;;;;;;;;;4214716;28;20425;-61
2022/08/08 12:42:22;;;;;;;5.53;3.03;;;;;;;;;;4215279;28;20032;-61